Time;durP1;ratioP1;P1;durP2;ratioP2;P2;SDS_P1;SDS_P2;PMS_P1;PMS_P2;Temp;Humidity;BMP_temperature;BMP_pressure;BME280_temperature;BME280_humidity;BME280_pressure;Samples;Min_cycle;Max_cycle;Signal;HPM_P1;HPM_P2
2021/08/04 09:24:03;;;;;;;5.55;4.50;;;;;;;18.18;69.78;100075.84;5160423;27;20129;-51
2021/08/04 09:26:29;;;;;;;8.05;4.28;;;;;;;18.20;68.97;100067.63;5146515;27;20031;-53
2021/08/04 09:29:03;;;;;;;7.03;4.50;;;;;;;18.36;68.80;100058.38;5149294;27;20042;-51
2021/08/04 09:31:51;;;;;;;6.32;4.70;;;;;;;18.62;67.77;100066.59;5146382;27;20030;-51
2021/08/04 09:34:37;;;;;;;7.30;4.07;;;;;;;18.73;66.79;100063.28;5147191;27;20114;-50
2021/08/04 09:37:16;;;;;;;6.65;4.03;;;;;;;18.87;66.28;100060.59;5147628;27;20043;-50
2021/08/04 09:39:55;;;;;;;6.28;4.22;;;;;;;19.00;65.78;100054.38;5148125;27;20073;-51
2021/08/04 09:42:21;;;;;;;4.78;4.30;;;;;;;19.20;64.63;100051.66;5147282;27;20042;-50
2021/08/04 09:44:54;;;;;;;6.18;4.03;;;;;;;19.28;64.52;100053.28;5146021;27;20509;-50
2021/08/04 09:47:20;;;;;;;5.03;4.00;;;;;;;19.34;64.46;100045.22;5121260;27;20083;-51
2021/08/04 09:50:04;;;;;;;4.93;3.53;;;;;;;19.39;64.28;100049.13;5128012;27;20027;-50
2021/08/04 09:52:30;;;;;;;7.53;4.15;;;;;;;19.42;64.10;100049.53;5145401;27;20042;-50
2021/08/04 09:55:13;;;;;;;3.65;3.35;;;;;;;19.40;63.71;100048.09;5145078;27;20031;-51
2021/08/04 09:57:46;;;;;;;3.83;3.28;;;;;;;19.36;63.84;100049.53;5146866;27;20023;-50
2021/08/04 10:00:13;;;;;;;8.93;3.70;;;;;;;19.28;64.23;100051.44;5148617;27;20043;-51
2021/08/04 10:02:40;;;;;;;5.15;3.40;;;;;;;19.34;64.15;100047.06;5148174;27;20027;-50
2021/08/04 10:05:20;;;;;;;5.38;3.30;;;;;;;19.30;64.49;100041.31;5144850;27;20050;-50
2021/08/04 10:08:03;;;;;;;3.70;3.13;;;;;;;19.31;64.27;100042.97;5146116;27;20099;-50
2021/08/04 10:10:30;;;;;;;3.30;3.00;;;;;;;19.28;64.67;100043.41;5144859;27;20139;-51
2021/08/04 10:12:57;;;;;;;3.00;2.80;;;;;;;19.28;64.92;100046.09;5148417;27;20382;-51
2021/08/04 10:15:23;;;;;;;4.65;3.13;;;;;;;19.28;65.29;100038.03;5145071;27;20023;-50
2021/08/04 10:17:50;;;;;;;8.25;3.50;;;;;;;19.34;64.59;100044.41;5147706;27;20041;-50
2021/08/04 10:20:16;;;;;;;7.68;3.17;;;;;;;19.39;64.41;100038.41;5148469;27;20177;-50
2021/08/04 10:22:42;;;;;;;4.00;2.40;;;;;;;19.40;64.71;100034.69;5147658;27;20047;-52
2021/08/04 10:25:08;;;;;;;5.05;2.83;;;;;;;19.38;64.81;100034.09;5147813;27;20050;-50
2021/08/04 10:27:34;;;;;;;3.13;2.83;;;;;;;19.38;64.89;100034.09;5147734;27;20039;-50
2021/08/04 10:30:01;;;;;;;6.95;2.72;;;;;;;19.38;64.66;100034.91;5147790;27;20031;-50
2021/08/04 10:32:31;;;;;;;6.93;2.80;;;;;;;19.44;64.04;100034.06;5147565;27;20083;-51
2021/08/04 10:34:59;;;;;;;6.28;2.50;;;;;;;19.41;63.81;100028.28;5134118;27;20167;-52
2021/08/04 10:37:24;;;;;;;2.80;2.45;;;;;;;19.48;64.08;100022.91;5134397;27;20027;-51
2021/08/04 10:39:51;;;;;;;2.88;2.50;;;;;;;19.48;64.67;100018.34;5133410;27;20378;-54
2021/08/04 10:42:40;;;;;;;3.80;2.50;;;;;;;19.50;64.25;100020.81;5132003;27;20039;-53
2021/08/04 10:45:24;;;;;;;6.38;2.92;;;;;;;19.57;64.21;100021.63;5132070;27;20050;-53
2021/08/04 10:47:57;;;;;;;5.30;2.47;;;;;;;19.63;64.05;100017.25;5132993;27;20118;-53
2021/08/04 10:50:23;;;;;;;5.82;2.70;;;;;;;19.76;63.37;100024.41;5133088;27;20053;-53
2021/08/04 10:52:58;;;;;;;4.63;2.55;;;;;;;19.87;63.04;100017.50;5115741;27;20416;-53
2021/08/04 10:55:25;;;;;;;5.05;2.80;;;;;;;19.88;62.98;100009.25;5133286;27;20035;-53
2021/08/04 10:58:07;;;;;;;4.18;2.70;;;;;;;19.98;62.50;100008.78;5133439;27;20452;-52
2021/08/04 11:00:34;;;;;;;5.00;2.70;;;;;;;19.99;62.23;100012.28;5131145;27;20098;-52
2021/08/04 11:03:20;;;;;;;3.95;2.72;;;;;;;20.02;62.41;100003.81;5132602;27;20047;-53
2021/08/04 11:06:05;;;;;;;27.23;3.10;;;;;;;19.98;62.65;100003.41;5132998;27;20114;-53
2021/08/04 11:08:31;;;;;;;4.25;2.42;;;;;;;20.03;62.10;99998.25;5133817;27;20031;-52
2021/08/04 11:10:57;;;;;;;2.80;2.13;;;;;;;20.02;62.47;99993.06;5134122;27;20039;-53
2021/08/04 11:13:41;;;;;;;5.63;2.10;;;;;;;20.13;61.93;99995.06;5133753;27;20106;-52
2021/08/04 11:16:30;;;;;;;2.58;1.92;;;;;;;20.16;61.78;99983.06;5133514;27;20401;-52
2021/08/04 11:19:14;;;;;;;2.35;2.00;;;;;;;20.17;61.92;99987.41;5114959;27;20417;-52
2021/08/04 11:21:40;;;;;;;1.70;1.60;;;;;;;20.10;61.89;99982.06;5133902;27;20106;-53
2021/08/04 11:24:06;;;;;;;4.55;2.10;;;;;;;20.14;61.37;99977.94;5133957;27;20485;-52
2021/08/04 11:26:37;;;;;;;4.57;1.88;;;;;;;20.03;62.08;99967.91;5134118;27;20073;-52
2021/08/04 11:29:08;;;;;;;1.88;1.65;;;;;;;20.01;62.08;99967.28;5133738;27;20035;-52
2021/08/04 11:31:34;;;;;;;2.25;1.63;;;;;;;19.97;62.33;99974.97;5132992;27;20032;-52
2021/08/04 11:34:30;;;;;;;3.65;2.70;;;;;;;19.98;62.47;99962.34;5098377;27;20096;-52
2021/08/04 11:37:00;;;;;;;;;;;;;;;20.02;62.41;99953.66;5095566;27;20091;-52
2021/08/04 11:39:25;;;;;;;4.80;3.22;;;;;;;20.00;62.58;99953.06;5133521;27;19915;-55
2021/08/04 11:41:51;;;;;;;5.82;3.15;;;;;;;19.99;62.97;99951.41;5132926;27;20046;-52
2021/08/04 11:44:19;;;;;;;7.40;3.78;;;;;;;19.93;63.43;99954.94;5114992;27;20074;-52
2021/08/04 11:46:49;;;;;;;3.55;2.90;;;;;;;19.95;63.58;99952.88;5133271;27;20066;-51
2021/08/04 11:49:19;;;;;;;3.83;2.40;;;;;;;19.93;63.85;99949.59;5133709;27;20135;-51
2021/08/04 11:51:51;;;;;;;2.40;2.13;;;;;;;19.91;64.00;99955.19;5133555;27;20059;-51
2021/08/04 11:54:38;;;;;;;6.20;2.83;;;;;;;19.95;63.87;99950.19;5133679;27;20087;-53
2021/08/04 11:57:27;;;;;;;10.50;2.78;;;;;;;19.94;63.66;99951.25;5132879;27;20096;-53
2021/08/04 11:59:58;;;;;;;6.07;2.17;;;;;;;19.89;63.65;99951.09;5131112;27;20038;-53
2021/08/04 12:02:26;;;;;;;2.22;2.03;;;;;;;19.86;63.44;99946.97;5132934;27;20070;-53
2021/08/04 12:04:55;;;;;;;20.63;3.53;;;;;;;19.88;63.83;99939.53;5132865;27;20162;-54
2021/08/04 12:07:26;;;;;;;18.70;2.80;;;;;;;19.92;63.76;99945.28;5128121;27;20030;-54
2021/08/04 12:09:58;;;;;;;5.22;3.45;;;;;;;19.98;63.52;99943.56;5127597;27;20118;-55
2021/08/04 12:12:34;;;;;;;7.05;2.45;;;;;;;19.99;63.35;99947.91;5129239;27;20057;-55
2021/08/04 12:15:00;;;;;;;;;;;;;;;20.00;63.11;99938.81;5110831;27;20027;-55
2021/08/04 12:17:36;;;;;;;4.30;2.22;;;;;;;20.06;62.88;99936.13;5130091;27;19921;-55
2021/08/04 12:20:19;;;;;;;2.65;2.17;;;;;;;20.01;62.88;99933.22;5130088;27;20036;-55
2021/08/04 12:22:58;;;;;;;5.70;2.38;;;;;;;20.10;63.06;99943.72;5128553;27;20603;-55
2021/08/04 12:25:24;;;;;;;2.72;2.53;;;;;;;20.11;63.40;99931.94;5109525;27;20052;-55
2021/08/04 12:27:52;;;;;;;3.40;2.10;;;;;;;20.18;63.32;99930.00;5130350;27;20031;-55
2021/08/04 12:30:25;;;;;;;3.10;2.60;;;;;;;20.16;63.83;99924.84;5128610;27;20492;-55
2021/08/04 12:32:59;;;;;;;5.32;2.17;;;;;;;20.07;64.32;99921.66;5128611;27;20027;-55
2021/08/04 12:35:37;;;;;;;2.22;2.03;;;;;;;20.06;63.99;99916.50;5128853;27;20039;-55
2021/08/04 12:38:06;;;;;;;4.10;2.47;;;;;;;20.01;64.00;99921.66;5128808;27;20405;-54
2021/08/04 12:40:32;;;;;;;4.28;2.17;;;;;;;20.03;64.11;99915.09;5128810;27;20118;-55
2021/08/04 12:42:58;;;;;;;2.80;2.30;;;;;;;20.03;63.53;99917.78;5124664;27;20461;-55
2021/08/04 12:45:27;;;;;;;2.25;1.90;;;;;;;20.00;63.33;99915.50;5116125;27;20036;-54
2021/08/04 12:48:01;;;;;;;3.53;2.53;;;;;;;20.00;63.61;99918.19;5113522;27;20413;-55
2021/08/04 12:50:29;;;;;;;2.58;2.25;;;;;;;20.01;63.21;99911.78;5111272;28;20173;-55
2021/08/04 12:52:56;;;;;;;2.05;1.90;;;;;;;20.01;63.30;99914.44;5093022;28;20043;-54
2021/08/04 12:55:23;;;;;;;2.00;1.80;;;;;;;20.02;63.17;99908.06;5126625;27;20394;-55
2021/08/04 12:58:06;;;;;;;1.90;1.80;;;;;;;20.04;63.35;99906.00;5130181;27;20030;-54
2021/08/04 13:00:36;;;;;;;3.80;1.92;;;;;;;20.08;62.72;99909.06;5127751;27;20036;-54
2021/08/04 13:03:05;;;;;;;2.40;1.70;;;;;;;20.08;62.51;99901.00;5110932;28;20046;-54
2021/08/04 13:05:32;;;;;;;1.77;1.50;;;;;;;20.04;62.52;99905.16;5092766;28;20031;-55
2021/08/04 13:07:57;;;;;;;3.92;1.90;;;;;;;20.04;61.91;99913.22;5111511;27;20073;-55
2021/08/04 13:10:38;;;;;;;2.85;2.20;;;;;;;20.00;63.18;99902.09;5110936;27;20498;-55
2021/08/04 13:13:04;;;;;;;3.08;1.80;;;;;;;20.01;62.58;99901.03;5111740;28;20504;-54
2021/08/04 13:15:51;;;;;;;2.53;1.80;;;;;;;20.01;62.74;99898.34;5130985;27;20039;-54
2021/08/04 13:18:17;;;;;;;2.25;1.50;;;;;;;20.05;62.36;99893.41;5132184;27;20039;-55
2021/08/04 13:20:43;;;;;;;1.95;1.80;;;;;;;20.08;62.23;99891.09;5132219;27;20552;-55
2021/08/04 13:23:16;;;;;;;4.28;2.10;;;;;;;20.04;62.24;99884.53;5131914;27;20039;-55
2021/08/04 13:25:45;;;;;;;2.00;1.80;;;;;;;20.03;62.58;99871.34;5132137;27;20072;-54
2021/08/04 13:28:12;;;;;;;2.35;1.40;;;;;;;20.01;63.32;99884.13;5129522;28;20063;-54
2021/08/04 13:30:53;;;;;;;1.65;1.55;;;;;;;20.03;63.01;99864.13;5131648;28;20042;-54
2021/08/04 13:33:24;;;;;;;1.90;1.55;;;;;;;20.13;62.55;99865.47;5131556;28;20122;-54
2021/08/04 13:35:52;;;;;;;2.28;1.55;;;;;;;20.14;63.01;99867.94;5132150;28;20111;-54
2021/08/04 13:38:18;;;;;;;2.00;1.70;;;;;;;20.08;63.48;99860.78;5131198;28;20034;-55
2021/08/04 13:40:45;;;;;;;1.35;1.25;;;;;;;20.11;62.94;99857.66;5131705;28;20031;-54
2021/08/04 13:43:11;;;;;;;2.30;1.50;;;;;;;20.13;62.55;99862.78;5131603;28;20034;-54
2021/08/04 13:45:37;;;;;;;1.65;1.42;;;;;;;20.18;62.24;99854.88;5113113;28;20046;-55
2021/08/04 13:48:03;;;;;;;2.40;1.45;;;;;;;20.20;61.62;99860.84;5113087;28;20023;-55
2021/08/04 13:50:29;;;;;;;2.42;1.40;;;;;;;20.20;61.28;99861.69;5113134;28;20126;-54
2021/08/04 13:52:57;;;;;;;1.40;1.30;;;;;;;20.21;61.27;99859.78;5131925;28;20130;-54
2021/08/04 13:55:25;;;;;;;4.28;1.50;;;;;;;20.18;61.52;99861.06;5131860;28;20190;-55
2021/08/04 13:57:51;;;;;;;1.50;1.40;;;;;;;20.24;61.19;99861.22;5131816;28;20046;-54
2021/08/04 14:00:23;;;;;;;4.07;1.48;;;;;;;20.24;60.71;99848.66;5131734;28;20038;-54
2021/08/04 14:02:50;;;;;;;1.60;1.50;;;;;;;20.26;60.93;99854.59;5130515;28;20097;-54
2021/08/04 14:05:17;;;;;;;1.88;1.67;;;;;;;20.26;60.80;99848.41;5131080;28;20058;-55
2021/08/04 14:07:44;;;;;;;1.73;1.60;;;;;;;20.27;60.80;99844.69;5131637;28;20374;-54
2021/08/04 14:10:14;;;;;;;2.03;1.67;;;;;;;20.26;61.15;99841.16;5132079;27;20035;-54
2021/08/04 14:12:40;;;;;;;5.50;1.55;;;;;;;20.25;61.26;99842.22;5124459;27;20034;-54
2021/08/04 14:15:10;;;;;;;2.33;1.65;;;;;;;20.25;61.62;99836.03;5135466;27;20496;-54
2021/08/04 14:17:35;;;;;;;3.15;1.60;;;;;;;20.27;61.49;99842.00;5135393;27;20035;-54
2021/08/04 14:20:01;;;;;;;3.20;1.75;;;;;;;20.26;61.52;99841.16;5117111;27;20516;-55
2021/08/04 14:22:27;;;;;;;3.42;1.77;;;;;;;20.29;61.29;99837.25;5134986;27;20049;-55
2021/08/04 14:24:53;;;;;;;10.00;1.88;;;;;;;20.27;61.13;99826.72;5135476;27;20035;-55
2021/08/04 14:27:19;;;;;;;2.20;1.85;;;;;;;20.28;61.48;99822.16;5135376;27;20027;-55
2021/08/04 14:29:45;;;;;;;1.80;1.65;;;;;;;20.27;61.51;99818.69;5135021;27;20055;-55
2021/08/04 14:32:12;;;;;;;3.22;2.10;;;;;;;20.30;61.24;99812.84;5135178;27;20035;-55
2021/08/04 14:34:38;;;;;;;5.07;1.83;;;;;;;20.33;60.97;99803.53;5134983;27;20031;-55
2021/08/04 14:37:04;;;;;;;2.90;2.42;;;;;;;20.36;60.93;99803.06;5135335;27;20130;-55
2021/08/04 14:39:31;;;;;;;4.63;2.05;;;;;;;20.42;60.78;99793.28;5134846;27;20035;-54
2021/08/04 14:41:57;;;;;;;4.60;1.63;;;;;;;20.46;60.84;99799.88;5134815;27;20027;-55
2021/08/04 14:44:23;;;;;;;3.88;1.80;;;;;;;20.41;60.71;99794.34;5134947;27;20069;-55
2021/08/04 14:46:49;;;;;;;2.03;1.90;;;;;;;20.39;61.02;99796.44;5134866;27;20023;-55
2021/08/04 14:49:15;;;;;;;2.67;1.90;;;;;;;20.42;60.87;99798.66;5133918;27;20164;-55
2021/08/04 14:51:41;;;;;;;3.28;1.63;;;;;;;20.41;61.18;99784.44;5134524;27;20034;-55
2021/08/04 14:54:07;;;;;;;2.90;2.03;;;;;;;20.44;61.23;99788.53;5134875;27;20035;-55
2021/08/04 14:56:33;;;;;;;2.00;1.80;;;;;;;20.50;60.88;99786.78;5134674;27;20027;-55
2021/08/04 14:58:59;;;;;;;2.70;2.50;;;;;;;20.48;61.00;99784.34;5134590;27;20091;-55
2021/08/04 15:01:25;;;;;;;4.60;2.33;;;;;;;20.49;61.08;99782.47;5116368;27;20536;-55
2021/08/04 15:03:51;;;;;;;2.55;2.30;;;;;;;20.50;61.23;99778.72;5134637;27;20039;-55
2021/08/04 15:06:17;;;;;;;3.85;2.42;;;;;;;20.49;61.29;99777.94;5131392;27;20062;-54
2021/08/04 15:08:42;;;;;;;2.22;2.03;;;;;;;20.51;61.16;99773.16;5134134;27;20030;-53
2021/08/04 15:11:08;;;;;;;2.45;2.25;;;;;;;20.57;60.79;99766.88;5133803;27;20386;-53
2021/08/04 15:13:34;;;;;;;2.85;2.35;;;;;;;20.57;60.66;99774.94;5133730;27;20050;-53
2021/08/04 15:16:02;;;;;;;3.67;2.40;;;;;;;20.64;60.75;99772.13;5132512;27;20038;-53
2021/08/04 15:18:28;;;;;;;4.22;2.85;;;;;;;20.64;61.16;99768.66;5133754;27;20038;-53
2021/08/04 15:20:53;;;;;;;4.18;2.72;;;;;;;20.62;61.28;99774.25;5133575;27;20046;-53
2021/08/04 15:23:19;;;;;;;4.40;2.97;;;;;;;20.62;61.17;99763.50;5133372;27;20051;-53
2021/08/04 15:25:45;;;;;;;3.38;2.78;;;;;;;20.63;61.56;99764.31;5133171;27;20027;-53
2021/08/04 15:28:10;;;;;;;3.92;3.20;;;;;;;20.60;61.61;99765.59;5115416;27;20054;-53
2021/08/04 15:30:36;;;;;;;6.25;3.35;;;;;;;20.60;61.89;99765.59;5130793;27;20032;-53
2021/08/04 15:33:03;;;;;;;3.58;2.83;;;;;;;20.56;61.54;99762.53;5115235;27;20042;-53
2021/08/04 15:35:29;;;;;;;4.97;3.05;;;;;;;20.57;61.30;99758.00;5130222;27;20042;-53
2021/08/04 15:37:59;;;;;;;4.18;3.00;;;;;;;20.57;60.79;99760.69;5115319;27;20455;-53
2021/08/04 15:40:25;;;;;;;8.95;3.25;;;;;;;20.56;60.72;99753.69;5127147;27;20110;-53
2021/08/04 15:42:51;;;;;;;4.82;3.03;;;;;;;20.57;60.91;99760.69;5131401;27;20110;-53
2021/08/04 15:45:17;;;;;;;3.35;2.92;;;;;;;20.54;61.03;99761.97;5130678;27;20039;-53
2021/08/04 15:47:43;;;;;;;5.20;2.67;;;;;;;20.52;61.00;99758.69;5121774;27;20072;-53
2021/08/04 15:50:09;;;;;;;4.70;3.70;;;;;;;20.49;61.22;99752.94;5130678;27;20045;-53
2021/08/04 15:52:35;;;;;;;6.07;3.30;;;;;;;20.51;61.07;99753.56;5131280;27;20419;-53
2021/08/04 15:55:02;;;;;;;3.85;3.22;;;;;;;20.56;61.14;99756.38;5130952;27;20091;-53
2021/08/04 15:57:28;;;;;;;4.50;3.17;;;;;;;20.60;61.20;99752.19;5112091;27;20034;-54
2021/08/04 15:59:53;;;;;;;4.82;2.90;;;;;;;20.64;61.00;99742.59;5130671;27;20027;-55
2021/08/04 16:02:19;;;;;;;5.50;2.90;;;;;;;20.63;61.07;99737.47;5130854;27;20035;-55
2021/08/04 16:05:01;;;;;;;3.42;3.00;;;;;;;20.62;61.00;99742.03;5128916;27;20059;-56
2021/08/04 16:07:26;;;;;;;2.70;2.50;;;;;;;20.63;60.63;99734.78;5132606;27;20558;-55
2021/08/04 16:09:52;;;;;;;4.60;3.30;;;;;;;20.62;59.80;99731.31;5132669;27;20032;-56
2021/08/04 16:12:18;;;;;;;2.85;2.60;;;;;;;20.63;59.46;99724.88;5131261;27;20101;-55
2021/08/04 16:14:43;;;;;;;4.30;2.60;;;;;;;20.62;59.08;99730.47;5131750;27;20107;-56
2021/08/04 16:17:09;;;;;;;4.03;2.75;;;;;;;20.61;59.14;99729.66;5130826;27;20035;-55
2021/08/04 16:19:35;;;;;;;3.05;2.60;;;;;;;20.63;59.13;99726.72;5132180;27;20027;-55
2021/08/04 16:22:02;;;;;;;3.42;2.60;;;;;;;20.60;59.27;99719.13;5131039;27;20035;-55
2021/08/04 16:24:28;;;;;;;3.10;2.80;;;;;;;20.61;59.25;99726.97;5132641;27;20636;-55
2021/08/04 16:26:54;;;;;;;5.03;2.50;;;;;;;20.57;59.32;99723.09;5131953;27;20047;-55
2021/08/04 16:29:19;;;;;;;3.50;2.70;;;;;;;20.56;59.65;99724.97;5132101;27;20031;-55
2021/08/04 16:31:45;;;;;;;3.53;2.65;;;;;;;20.51;60.00;99714.13;5131892;27;20163;-56
2021/08/04 16:34:11;;;;;;;3.42;2.72;;;;;;;20.46;60.37;99705.91;5132480;27;20070;-55
2021/08/04 16:36:36;;;;;;;9.30;3.00;;;;;;;20.50;60.05;99706.25;5131201;27;20031;-56
2021/08/04 16:39:03;;;;;;;3.15;2.85;;;;;;;20.48;60.08;99700.31;5130672;27;20043;-55
2021/08/04 16:41:28;;;;;;;4.00;2.92;;;;;;;20.49;60.05;99694.72;5131807;27;20059;-55
2021/08/04 16:43:54;;;;;;;3.72;2.95;;;;;;;20.45;60.10;99693.53;5132073;27;20046;-56
2021/08/04 16:46:20;;;;;;;3.65;2.85;;;;;;;20.48;60.12;99689.59;5131516;27;20487;-55
2021/08/04 16:48:45;;;;;;;3.58;2.20;;;;;;;20.44;60.27;99692.72;5132405;27;20031;-55
2021/08/04 16:51:11;;;;;;;2.90;2.53;;;;;;;20.41;60.01;99695.03;5130425;27;20362;-55
2021/08/04 16:53:38;;;;;;;3.55;2.67;;;;;;;20.42;60.23;99688.63;5131891;27;20206;-55
2021/08/04 16:56:04;;;;;;;4.07;2.50;;;;;;;20.41;60.04;99682.44;5131373;27;20039;-56
2021/08/04 16:58:33;;;;;;;3.85;2.47;;;;;;;20.39;60.09;99681.84;5131717;27;20500;-55
2021/08/04 17:00:59;;;;;;;4.53;2.35;;;;;;;20.37;60.17;99672.41;5131749;27;20042;-55
2021/08/04 17:03:25;;;;;;;3.67;2.00;;;;;;;20.36;60.00;99678.78;5113387;27;20039;-55
2021/08/04 17:05:51;;;;;;;3.92;2.50;;;;;;;20.35;59.79;99685.22;5129521;27;20023;-55
2021/08/04 17:08:17;;;;;;;2.60;2.40;;;;;;;20.28;60.18;99679.94;5107475;28;20035;-55
2021/08/04 17:10:42;;;;;;;5.28;2.83;;;;;;;20.19;60.50;99676.78;5117328;27;20091;-55
2021/08/04 17:13:09;;;;;;;4.25;2.65;;;;;;;20.25;60.45;99675.03;5130070;27;20452;-55
2021/08/04 17:15:36;;;;;;;2.58;2.33;;;;;;;20.25;60.33;99669.66;5130796;27;20138;-55
2021/08/04 17:18:03;;;;;;;3.90;2.15;;;;;;;20.23;60.13;99675.25;5130778;27;20031;-55
2021/08/04 17:20:30;;;;;;;4.18;2.10;;;;;;;20.22;60.31;99675.50;5131222;27;20023;-55
2021/08/04 17:22:56;;;;;;;3.28;2.15;;;;;;;20.23;60.57;99680.63;5131190;28;20051;-55
2021/08/04 17:25:23;;;;;;;2.65;2.05;;;;;;;20.22;60.47;99678.16;5131201;28;20035;-55
2021/08/04 17:27:49;;;;;;;2.72;2.08;;;;;;;20.22;60.74;99681.69;5096006;28;20574;-55
2021/08/04 17:30:16;;;;;;;2.55;1.88;;;;;;;20.19;60.66;99676.78;5131325;28;20546;-55
2021/08/04 17:32:42;;;;;;;2.92;1.80;;;;;;;20.18;60.70;99677.78;5131603;28;20031;-55
2021/08/04 17:35:08;;;;;;;3.55;2.22;;;;;;;20.17;60.83;99677.00;5130609;28;20027;-55
2021/08/04 17:37:34;;;;;;;2.47;1.88;;;;;;;20.15;61.09;99688.97;5131158;28;20055;-55
2021/08/04 17:40:00;;;;;;;2.25;1.90;;;;;;;20.15;61.69;99687.13;5112616;28;20059;-55
2021/08/04 17:42:25;;;;;;;3.03;2.20;;;;;;;20.12;62.21;99686.75;5131896;28;20031;-54
2021/08/04 17:44:51;;;;;;;4.97;1.98;;;;;;;20.09;62.51;99674.63;5134107;27;20031;-54
2021/08/04 17:47:18;;;;;;;5.22;1.75;;;;;;;20.06;62.90;99669.72;5136452;27;20027;-54
2021/08/04 17:49:43;;;;;;;4.88;1.92;;;;;;;20.05;62.82;99681.50;5135693;27;20027;-54
2021/08/04 17:52:09;;;;;;;2.10;1.63;;;;;;;20.02;63.03;99671.19;5135881;27;20511;-54
2021/08/04 17:54:35;;;;;;;3.00;1.88;;;;;;;20.03;62.93;99672.84;5117449;27;20035;-54
2021/08/04 17:57:00;;;;;;;2.42;2.17;;;;;;;20.01;63.25;99670.38;5136012;27;20038;-54
2021/08/04 17:59:26;;;;;;;3.58;2.03;;;;;;;19.99;63.53;99666.28;5135637;27;20027;-54
2021/08/04 18:01:52;;;;;;;4.28;3.45;;;;;;;19.95;64.28;99672.09;5135676;27;20035;-54
2021/08/04 18:04:19;;;;;;;6.65;5.93;;;;;;;19.93;64.37;99667.97;5135793;27;20129;-53
2021/08/04 18:06:45;;;;;;;10.38;9.35;;;;;;;19.94;64.35;99670.44;5134572;27;20028;-53
2021/08/04 18:09:12;;;;;;;10.73;9.52;;;;;;;19.95;64.28;99668.59;5135805;27;20055;-53
2021/08/04 18:11:41;;;;;;;11.70;9.98;;;;;;;19.95;64.32;99666.72;5135670;27;20031;-53
2021/08/04 18:14:08;;;;;;;13.93;12.57;;;;;;;19.95;64.41;99672.09;5135924;27;20096;-53
2021/08/04 18:16:34;;;;;;;9.88;8.98;;;;;;;19.94;64.04;99662.41;5135727;27;20115;-53
2021/08/04 18:18:59;;;;;;;11.75;9.75;;;;;;;19.95;63.88;99660.53;5135466;27;20118;-53
2021/08/04 18:21:27;;;;;;;10.27;9.27;;;;;;;19.94;63.82;99659.72;5135531;27;20027;-53
2021/08/04 18:23:53;;;;;;;10.32;9.32;;;;;;;19.93;63.90;99658.09;5135235;27;20126;-53
2021/08/04 18:26:19;;;;;;;10.15;8.35;;;;;;;19.88;63.84;99651.75;5132498;27;20382;-54
2021/08/04 18:28:45;;;;;;;9.70;7.82;;;;;;;19.89;63.82;99651.53;5116917;27;20482;-53
2021/08/04 18:31:11;;;;;;;10.13;7.75;;;;;;;19.91;63.70;99648.63;5135212;27;20020;-53
2021/08/04 18:33:37;;;;;;;10.77;7.80;;;;;;;19.92;63.74;99642.22;5135110;27;20635;-53
2021/08/04 18:36:03;;;;;;;8.18;7.18;;;;;;;19.91;63.71;99637.88;5117602;27;20039;-54
2021/08/04 18:38:29;;;;;;;6.63;5.93;;;;;;;19.90;63.52;99646.97;5135063;27;20122;-53
2021/08/04 18:40:56;;;;;;;6.60;5.00;;;;;;;19.84;64.21;99641.47;5130565;27;20091;-52
2021/08/04 18:43:21;;;;;;;7.45;4.82;;;;;;;19.89;63.73;99634.63;5132793;27;20035;-52
2021/08/04 18:45:47;;;;;;;5.47;3.60;;;;;;;19.90;63.74;99638.94;5130880;27;20035;-52
2021/08/04 18:48:13;;;;;;;9.90;3.55;;;;;;;19.96;63.97;99659.47;5133828;27;20031;-53
2021/08/04 18:50:40;;;;;;;9.55;2.58;;;;;;;19.92;63.45;99656.44;5133823;27;20027;-52
2021/08/04 18:53:06;;;;;;;4.03;2.10;;;;;;;20.00;63.53;99652.66;5133919;27;20031;-53
2021/08/04 18:55:31;;;;;;;12.02;2.13;;;;;;;20.01;63.07;99648.06;5110477;27;20031;-52
2021/08/04 18:57:57;;;;;;;4.30;1.63;;;;;;;20.06;62.95;99640.22;5127947;27;20400;-52
2021/08/04 19:00:23;;;;;;;9.38;1.60;;;;;;;20.04;62.82;99639.59;5133868;27;20179;-51
2021/08/04 19:02:52;;;;;;;7.07;1.30;;;;;;;20.04;62.73;99640.44;5133541;27;20496;-52
2021/08/04 19:05:29;;;;;;;1.95;1.10;;;;;;;20.11;62.64;99634.97;5133580;27;20039;-52
2021/08/04 19:07:56;;;;;;;4.00;1.50;;;;;;;20.15;62.51;99638.84;5133969;27;20356;-52
2021/08/04 19:10:23;;;;;;;5.82;1.08;;;;;;;20.16;62.38;99635.09;5133057;27;20561;-54
2021/08/04 19:12:50;;;;;;;9.18;1.10;;;;;;;20.12;62.53;99639.28;5133315;27;20062;-52
2021/08/04 19:15:17;;;;;;;15.40;1.88;;;;;;;20.11;62.79;99626.94;5133228;27;20035;-52
2021/08/04 19:17:44;;;;;;;7.93;1.40;;;;;;;20.16;62.94;99624.38;5133670;27;20079;-54
2021/08/04 19:20:11;;;;;;;7.93;1.40;;;;;;;20.20;62.60;99616.69;5133251;27;20035;-52
2021/08/04 19:22:40;;;;;;;2.92;1.42;;;;;;;20.16;62.37;99616.31;5132970;27;20504;-53
2021/08/04 19:25:14;;;;;;;1.63;1.27;;;;;;;20.14;62.49;99612.25;5133222;27;20087;-53
2021/08/04 19:27:41;;;;;;;2.63;0.95;;;;;;;20.12;62.55;99601.75;5115821;27;20124;-53
2021/08/04 19:30:09;;;;;;;1.63;1.13;;;;;;;20.14;62.57;99596.97;5133170;27;20069;-54
2021/08/04 19:32:35;;;;;;;1.98;1.40;;;;;;;20.14;62.66;99593.47;5133200;27;20477;-52
2021/08/04 19:35:01;;;;;;;2.90;1.33;;;;;;;20.15;62.72;99592.41;5132937;27;20035;-52
2021/08/04 19:37:27;;;;;;;2.25;1.30;;;;;;;20.16;62.52;99591.38;5133680;27;20416;-53
2021/08/04 19:39:52;;;;;;;1.50;1.17;;;;;;;20.11;62.93;99584.00;5128590;27;20019;-50
2021/08/04 19:42:18;;;;;;;1.83;1.20;;;;;;;20.16;62.93;99589.50;5132676;27;20043;-52
2021/08/04 19:44:44;;;;;;;7.03;1.30;;;;;;;20.12;62.76;99585.66;5131991;27;20038;-54
2021/08/04 19:47:09;;;;;;;3.28;1.70;;;;;;;20.14;62.73;99582.72;5132608;27;20042;-53
2021/08/04 19:49:35;;;;;;;2.92;1.70;;;;;;;20.17;62.61;99577.72;5132829;27;20035;-54
2021/08/04 19:52:02;;;;;;;8.52;1.80;;;;;;;20.11;62.84;99575.97;5130855;27;20039;-54
2021/08/04 19:54:28;;;;;;;4.03;1.65;;;;;;;20.14;62.50;99572.00;5132089;27;20039;-54
2021/08/04 19:56:53;;;;;;;5.03;1.70;;;;;;;20.14;62.54;99572.00;5130391;27;20122;-54
2021/08/04 19:59:19;;;;;;;4.10;1.20;;;;;;;20.13;62.51;99578.41;5132373;27;20042;-54
2021/08/04 20:01:46;;;;;;;2.15;1.10;;;;;;;20.09;62.49;99578.06;5130333;27;20034;-54
2021/08/04 20:04:13;;;;;;;1.30;1.17;;;;;;;20.07;62.60;99577.47;5094799;27;20031;-54
2021/08/04 20:06:39;;;;;;;2.92;1.00;;;;;;;20.05;62.83;99584.94;5131068;27;20035;-54
2021/08/04 20:09:05;;;;;;;4.80;1.00;;;;;;;20.05;62.73;99574.22;5144250;27;20046;-54
2021/08/04 20:11:31;;;;;;;1.73;1.10;;;;;;;20.02;62.55;99574.63;5128012;27;20481;-54
2021/08/04 20:13:56;;;;;;;4.00;0.90;;;;;;;20.02;62.54;99575.47;5128554;27;20481;-54
2021/08/04 20:16:22;;;;;;;1.75;0.80;;;;;;;20.02;62.71;99574.63;5132052;27;20023;-54
2021/08/04 20:18:48;;;;;;;0.80;0.80;;;;;;;19.99;62.66;99565.16;5131915;27;20031;-54
2021/08/04 20:21:13;;;;;;;2.25;0.90;;;;;;;19.96;62.76;99562.94;5132031;27;20031;-54
2021/08/04 20:23:39;;;;;;;1.70;0.90;;;;;;;19.94;62.70;99563.16;5113372;27;20047;-54
2021/08/04 20:26:06;;;;;;;2.28;0.80;;;;;;;19.96;62.81;99554.88;5130645;27;20063;-54
2021/08/04 20:28:32;;;;;;;0.98;0.80;;;;;;;19.93;62.77;99542.78;5131943;27;20035;-54
2021/08/04 20:30:58;;;;;;;2.05;1.05;;;;;;;19.91;62.89;99547.53;5131271;27;20066;-54
2021/08/04 20:33:26;;;;;;;1.63;0.90;;;;;;;19.93;62.76;99548.13;5131517;27;20062;-54
2021/08/04 20:35:52;;;;;;;0.90;0.90;;;;;;;19.87;62.98;99546.38;5131606;27;20050;-54
2021/08/04 20:38:18;;;;;;;0.80;0.80;;;;;;;19.89;63.04;99551.50;5131244;27;20043;-54
2021/08/04 20:40:58;;;;;;;1.42;0.70;;;;;;;19.76;63.10;99545.28;5131565;27;20034;-54
2021/08/04 20:43:24;;;;;;;2.78;0.75;;;;;;;19.79;63.15;99544.81;5129465;27;20446;-54
2021/08/04 20:45:50;;;;;;;1.42;0.90;;;;;;;19.79;63.12;99541.31;5100504;28;20088;-54
2021/08/04 20:48:15;;;;;;;2.83;0.68;;;;;;;19.74;63.34;99541.19;5110817;27;20566;-54
2021/08/04 20:50:44;;;;;;;1.48;0.80;;;;;;;19.75;63.05;99537.47;5128551;27;20039;-54
2021/08/04 20:53:10;;;;;;;1.40;0.70;;;;;;;19.71;63.25;99532.56;5129428;27;20065;-54
2021/08/04 20:55:36;;;;;;;1.38;0.82;;;;;;;19.68;63.42;99534.88;5113110;27;20027;-54
2021/08/04 20:58:04;;;;;;;1.92;0.90;;;;;;;19.67;63.53;99528.69;5128272;27;20088;-54
2021/08/04 21:00:32;;;;;;;1.48;0.60;;;;;;;19.66;63.56;99527.06;5131400;27;20027;-54